Time;durP1;ratioP1;P1;durP2;ratioP2;P2;SDS_P1;SDS_P2;PMS_P1;PMS_P2;Temp;Humidity;BMP_temperature;BMP_pressure;BME280_temperature;BME280_humidity;BME280_pressure;Samples;Min_cycle;Max_cycle;Signal;HPM_P1;HPM_P2
2024/01/11 00:01:46;;;;;;;4.07;3.77;;;;;;;-2.63;100.00;96214.25;4373888;32;20185;-62
2024/01/11 00:04:12;;;;;;;6.10;5.43;;;;;;;-2.47;100.00;96219.94;4375565;32;20272;-62
2024/01/11 00:07:02;;;;;;;4.83;4.43;;;;;;;-2.50;100.00;96219.53;4369779;32;20268;-62
2024/01/11 00:09:31;;;;;;;13.10;8.75;;;;;;;-2.28;100.00;96212.47;4361598;32;20247;-62
2024/01/11 00:11:57;;;;;;;13.90;6.90;;;;;;;-2.47;100.00;96213.94;4360902;32;20209;-62
2024/01/11 00:14:25;;;;;;;5.67;4.97;;;;;;;-2.42;100.00;96212.41;4380728;32;20200;-61
2024/01/11 00:16:52;;;;;;;5.70;5.37;;;;;;;-2.40;100.00;96209.59;4360634;32;20198;-62
2024/01/11 00:19:19;;;;;;;8.80;6.65;;;;;;;-2.46;100.00;96211.16;4364239;32;20249;-62
2024/01/11 00:21:45;;;;;;;11.25;6.70;;;;;;;-2.53;100.00;96220.72;4346161;32;20251;-62
2024/01/11 00:24:12;;;;;;;4.20;3.93;;;;;;;-2.43;100.00;96215.19;4345231;32;20196;-62
2024/01/11 00:26:38;;;;;;;4.53;4.30;;;;;;;-2.53;100.00;96214.72;4342106;32;20208;-62
2024/01/11 00:29:05;;;;;;;5.75;5.22;;;;;;;-2.69;100.00;96213.19;4350238;32;20196;-62
2024/01/11 00:31:30;;;;;;;6.78;6.28;;;;;;;-3.06;100.00;96214.28;4331102;32;20276;-62
2024/01/11 00:33:59;;;;;;;3.57;3.40;;;;;;;-2.97;100.00;96215.78;4360133;32;20219;-62
2024/01/11 00:36:24;;;;;;;5.72;5.32;;;;;;;-3.01;100.00;96211.94;4341735;32;20267;-62
2024/01/11 00:38:50;;;;;;;5.87;5.27;;;;;;;-3.10;100.00;96218.25;4370089;32;20196;-62
2024/01/11 00:41:17;;;;;;;6.90;6.30;;;;;;;-3.04;100.00;96209.72;4364910;32;20236;-62
2024/01/11 00:43:42;;;;;;;9.43;6.15;;;;;;;-2.84;100.00;96215.88;4359264;32;20258;-62
2024/01/11 00:46:09;;;;;;;8.83;7.13;;;;;;;-2.74;100.00;96206.97;4372353;32;20223;-62
2024/01/11 00:48:34;;;;;;;9.60;8.00;;;;;;;-2.76;100.00;96214.94;4344247;32;20271;-62
2024/01/11 00:50:59;;;;;;;7.30;6.70;;;;;;;-2.70;100.00;96210.81;4335237;32;20197;-62
2024/01/11 00:53:30;;;;;;;7.57;6.77;;;;;;;-2.74;100.00;96210.38;4353216;32;20177;-62
2024/01/11 00:55:57;;;;;;;6.37;5.78;;;;;;;-2.52;100.00;96213.75;4354944;32;20209;-62
2024/01/11 00:58:23;;;;;;;8.15;7.05;;;;;;;-2.90;100.00;96214.03;4345597;32;20223;-62
2024/01/11 01:00:49;;;;;;;9.57;4.57;;;;;;;-2.75;100.00;96216.56;4351970;32;20185;-62
2024/01/11 01:03:16;;;;;;;6.62;6.03;;;;;;;-2.74;100.00;96210.38;4368718;32;20176;-62
2024/01/11 01:05:41;;;;;;;6.30;5.75;;;;;;;-2.73;100.00;96218.97;4358408;32;20222;-62
2024/01/11 01:08:08;;;;;;;4.97;4.67;;;;;;;-2.61;100.00;96227.84;4334272;32;20220;-62
2024/01/11 01:10:33;;;;;;;5.35;4.45;;;;;;;-2.56;100.00;96226.28;4355426;32;20192;-62
2024/01/11 01:13:02;;;;;;;6.27;5.40;;;;;;;-2.94;100.00;96233.56;4362297;32;20269;-62
2024/01/11 01:15:28;;;;;;;6.62;6.07;;;;;;;-3.21;100.00;96227.31;4345430;32;20197;-62
2024/01/11 01:17:54;;;;;;;9.20;6.17;;;;;;;-2.85;100.00;96231.62;4338075;32;20332;-61
2024/01/11 01:20:20;;;;;;;6.10;5.60;;;;;;;-2.71;100.00;96223.00;4355529;32;20200;-62
2024/01/11 01:22:45;;;;;;;7.57;6.73;;;;;;;-3.07;100.00;96228.25;4357127;32;20196;-62
2024/01/11 01:25:11;;;;;;;6.47;4.47;;;;;;;-3.11;100.00;96225.22;4369509;32;26135;-62
2024/01/11 01:27:38;;;;;;;8.10;7.37;;;;;;;-3.08;100.00;96231.03;4355515;32;20193;-62
2024/01/11 01:30:04;;;;;;;7.55;5.53;;;;;;;-3.02;100.00;96230.28;4349108;32;20194;-62
2024/01/11 01:32:31;;;;;;;7.50;6.90;;;;;;;-2.97;100.00;96233.13;4358367;32;20231;-62
2024/01/11 01:34:56;;;;;;;4.75;4.40;;;;;;;-2.94;100.00;96236.16;4341299;32;20215;-62
2024/01/11 01:37:22;;;;;;;5.50;5.13;;;;;;;-2.99;100.00;96228.13;4345630;32;20208;-62
2024/01/11 01:39:48;;;;;;;8.57;7.53;;;;;;;-3.09;100.00;96240.59;4340350;32;20205;-62
2024/01/11 01:42:13;;;;;;;5.17;4.67;;;;;;;-3.37;100.00;96247.50;4358114;32;20244;-62
2024/01/11 01:44:41;;;;;;;7.50;6.77;;;;;;;-3.44;100.00;96241.44;4357341;32;20243;-62
2024/01/11 01:47:08;;;;;;;6.18;5.78;;;;;;;-3.26;100.00;96247.81;4337429;32;20217;-62
2024/01/11 01:49:35;;;;;;;6.75;5.60;;;;;;;-3.26;100.00;96249.63;4304950;32;20197;-62
2024/01/11 01:52:03;;;;;;;7.07;6.40;;;;;;;-3.24;100.00;96248.44;4308107;32;20277;-62
2024/01/11 01:54:29;;;;;;;4.80;4.50;;;;;;;-3.11;100.00;96247.75;4315102;32;20193;-62
2024/01/11 01:56:55;;;;;;;4.30;4.07;;;;;;;-3.18;100.00;96254.69;4358789;32;20224;-62
2024/01/11 01:59:22;;;;;;;7.30;6.90;;;;;;;-3.14;100.00;96253.34;4336204;32;20210;-62
2024/01/11 02:01:49;;;;;;;4.55;3.25;;;;;;;-3.21;100.00;96255.06;4323695;32;20209;-62
2024/01/11 02:04:15;;;;;;;6.27;5.73;;;;;;;-3.21;100.00;96255.88;4337829;32;20208;-62
2024/01/11 02:06:42;;;;;;;7.20;5.78;;;;;;;-3.34;100.00;96254.94;4338617;32;20189;-62
2024/01/11 02:09:08;;;;;;;5.68;5.10;;;;;;;-3.25;100.00;96259.81;4349271;32;20189;-62
2024/01/11 02:11:35;;;;;;;7.50;5.00;;;;;;;-3.38;100.00;96267.47;4336938;32;20201;-62
2024/01/11 02:14:02;;;;;;;6.32;5.75;;;;;;;-3.31;100.00;96264.91;4327410;32;20205;-62
2024/01/11 02:16:28;;;;;;;5.50;5.03;;;;;;;-3.34;100.00;96262.72;4336620;32;20237;-61
2024/01/11 02:18:54;;;;;;;6.87;6.30;;;;;;;-3.19;100.00;96260.88;4340084;32;20251;-62
2024/01/11 02:21:26;;;;;;;6.13;5.70;;;;;;;-3.19;100.00;96264.28;4327382;32;20198;-62
2024/01/11 02:24:11;;;;;;;6.05;5.65;;;;;;;-3.21;100.00;96252.47;4338912;32;20201;-61
2024/01/11 02:27:04;;;;;;;5.62;5.30;;;;;;;-3.27;100.00;96250.59;4349456;32;20205;-62
2024/01/11 02:29:30;;;;;;;5.62;5.12;;;;;;;-3.02;100.00;96248.47;4342400;32;20196;-62
2024/01/11 02:31:59;;;;;;;6.90;6.30;;;;;;;-2.94;100.00;96248.34;4347825;32;20212;-62
2024/01/11 02:34:28;;;;;;;7.43;6.75;;;;;;;-2.93;100.00;96252.53;4338289;32;20200;-62
2024/01/11 02:36:54;;;;;;;7.43;5.57;;;;;;;-2.83;100.00;96245.22;4343108;32;20206;-62
2024/01/11 02:39:22;;;;;;;8.02;7.22;;;;;;;-3.13;100.00;96250.56;4360628;32;20227;-62
2024/01/11 02:41:50;;;;;;;6.07;4.65;;;;;;;-3.18;100.00;96252.09;4324478;32;20192;-64
2024/01/11 02:44:16;;;;;;;5.97;5.57;;;;;;;-2.92;100.00;96248.97;4332455;32;20251;-64
2024/01/11 02:46:41;;;;;;;4.67;4.23;;;;;;;-3.09;100.00;96250.97;4347838;32;20438;-64
2024/01/11 02:49:08;;;;;;;6.07;5.47;;;;;;;-3.26;100.00;96247.81;4325813;32;20204;-64
2024/01/11 02:51:35;;;;;;;6.30;5.72;;;;;;;-3.29;100.00;96244.78;4330399;32;20221;-62
2024/01/11 02:54:01;;;;;;;6.37;5.72;;;;;;;-3.34;100.00;96241.97;4343054;32;20226;-62
2024/01/11 02:56:28;;;;;;;4.75;4.53;;;;;;;-3.05;100.00;96241.03;4349395;32;20253;-62
2024/01/11 02:58:53;;;;;;;4.97;4.07;;;;;;;-3.22;100.00;96233.50;4342066;32;20208;-62
2024/01/11 03:01:20;;;;;;;7.27;4.93;;;;;;;-3.22;100.00;96230.09;4362887;32;20204;-62
2024/01/11 03:03:46;;;;;;;5.82;5.22;;;;;;;-3.09;100.00;96225.03;4367640;32;20306;-62
2024/01/11 03:06:14;;;;;;;6.68;5.97;;;;;;;-3.17;100.00;96232.97;4377637;32;20263;-62
2024/01/11 03:08:39;;;;;;;3.55;2.87;;;;;;;-3.32;100.00;96237.38;4378370;32;20236;-62
2024/01/11 03:11:05;;;;;;;6.10;5.67;;;;;;;-3.13;100.00;96224.62;4367936;32;20280;-62
2024/01/11 03:13:31;;;;;;;5.77;4.57;;;;;;;-3.04;100.00;96232.25;4330850;32;20223;-62
2024/01/11 03:15:57;;;;;;;6.18;5.40;;;;;;;-3.39;100.00;96226.16;4328910;32;20193;-62
2024/01/11 03:18:24;;;;;;;7.10;6.40;;;;;;;-3.56;100.00;96228.97;4364323;32;20211;-62
2024/01/11 03:20:49;;;;;;;5.40;4.20;;;;;;;-3.08;100.00;96226.63;4352740;32;20277;-62
2024/01/11 03:23:14;;;;;;;11.37;7.47;;;;;;;-3.11;100.00;96221.81;4366692;32;20298;-62
2024/01/11 03:25:41;;;;;;;3.87;3.57;;;;;;;-2.92;100.00;96215.22;4373128;32;20354;-62
2024/01/11 03:28:06;;;;;;;4.18;3.95;;;;;;;-3.24;100.00;96222.50;4336441;32;20263;-62
2024/01/11 03:30:32;;;;;;;4.73;4.53;;;;;;;-3.07;100.00;96211.88;4335133;32;20263;-62
2024/01/11 03:32:59;;;;;;;4.00;3.80;;;;;;;-3.04;100.00;96212.31;4369424;32;20199;-62
2024/01/11 03:35:25;;;;;;;4.25;4.00;;;;;;;-2.91;100.00;96209.06;4365234;32;20268;-62
2024/01/11 03:37:58;;;;;;;5.78;5.35;;;;;;;-2.95;100.00;96211.22;4360480;32;20193;-62
2024/01/11 03:40:24;;;;;;;6.87;6.25;;;;;;;-3.03;100.00;96207.94;4367163;32;20192;-62
2024/01/11 03:42:49;;;;;;;7.23;5.17;;;;;;;-2.90;100.00;96206.25;4352255;32;20212;-62
2024/01/11 03:45:23;;;;;;;7.70;5.17;;;;;;;-3.04;100.00;96201.94;4328264;32;20200;-62
2024/01/11 03:47:49;;;;;;;4.03;3.78;;;;;;;-2.95;100.00;96206.00;4356824;32;20201;-62
2024/01/11 03:50:15;;;;;;;4.40;4.00;;;;;;;-2.82;100.00;96198.31;4336960;32;20256;-62
2024/01/11 03:52:42;;;;;;;4.40;3.67;;;;;;;-2.88;100.00;96198.25;4342749;32;20188;-62
2024/01/11 03:55:07;;;;;;;4.70;4.45;;;;;;;-2.67;100.00;96197.44;4355532;32;20196;-62
2024/01/11 03:57:37;;;;;;;4.17;3.93;;;;;;;-2.64;100.00;96192.66;4368531;32;20212;-62
2024/01/11 04:00:06;;;;;;;6.78;4.35;;;;;;;-2.65;100.00;96193.66;4367347;32;20232;-63
2024/01/11 04:02:31;;;;;;;7.57;5.28;;;;;;;-2.86;100.00;96181.53;4358605;32;20267;-62
2024/01/11 04:04:59;;;;;;;4.10;3.93;;;;;;;-2.91;100.00;96191.66;4352065;32;20185;-62
2024/01/11 04:07:26;;;;;;;3.55;3.35;;;;;;;-3.35;100.00;96191.09;4362321;32;20219;-61
2024/01/11 04:09:51;;;;;;;3.37;3.17;;;;;;;-2.85;100.00;96183.13;4387169;32;20242;-62
2024/01/11 04:12:19;;;;;;;6.50;6.07;;;;;;;-3.02;100.00;96183.59;4382518;32;20247;-62
2024/01/11 04:14:45;;;;;;;4.95;4.57;;;;;;;-2.85;100.00;96179.72;4348235;32;20184;-62
2024/01/11 04:17:12;;;;;;;15.57;8.10;;;;;;;-2.85;100.00;96184.91;4341595;32;20254;-62
2024/01/11 04:19:39;;;;;;;6.43;5.93;;;;;;;-2.71;100.00;96184.03;4371232;32;20192;-62
2024/01/11 04:22:09;;;;;;;6.43;5.80;;;;;;;-2.76;100.00;96183.81;4360267;32;20204;-62
2024/01/11 04:24:36;;;;;;;5.03;4.72;;;;;;;-2.64;100.00;96191.88;4347394;32;20236;-62
2024/01/11 04:27:03;;;;;;;11.27;8.15;;;;;;;-3.25;100.00;96191.56;4326659;32;20227;-62
2024/01/11 04:29:29;;;;;;;7.75;7.00;;;;;;;-2.96;100.00;96190.63;4358308;32;20229;-62
2024/01/11 04:31:54;;;;;;;6.93;6.43;;;;;;;-2.74;100.00;96189.63;4349672;32;20197;-62
2024/01/11 04:34:19;;;;;;;5.33;4.83;;;;;;;-2.66;100.00;96192.03;4349823;32;20215;-62
2024/01/11 04:36:45;;;;;;;6.17;5.57;;;;;;;-2.55;100.00;96196.75;4372019;32;20251;-62
2024/01/11 04:39:11;;;;;;;5.87;5.50;;;;;;;-2.67;100.00;96202.63;4343285;32;20255;-62
2024/01/11 04:41:37;;;;;;;6.22;4.47;;;;;;;-2.64;100.00;96202.25;4325814;32;20256;-62
2024/01/11 04:44:04;;;;;;;4.50;3.37;;;;;;;-2.55;100.00;96207.13;4359735;32;20177;-62
2024/01/11 04:46:30;;;;;;;4.53;3.80;;;;;;;-2.48;100.00;96202.75;4355842;32;20221;-62
2024/01/11 04:48:57;;;;;;;8.93;6.93;;;;;;;-2.72;100.00;96205.81;4357151;32;20219;-62
2024/01/11 04:51:23;;;;;;;7.97;5.30;;;;;;;-2.59;100.00;96211.09;4345965;32;20209;-61
2024/01/11 04:53:48;;;;;;;6.03;5.53;;;;;;;-3.05;100.00;96210.72;4351902;32;20197;-62
2024/01/11 04:56:15;;;;;;;4.57;4.17;;;;;;;-2.94;100.00;96209.41;4326786;32;20340;-62
2024/01/11 04:58:46;;;;;;;16.73;5.25;;;;;;;-3.25;100.00;96209.72;4367642;32;20193;-62
2024/01/11 05:01:19;;;;;;;5.50;5.10;;;;;;;-3.07;100.00;96207.50;4351330;32;20309;-62
2024/01/11 05:03:46;;;;;;;7.07;5.07;;;;;;;-3.12;100.00;96213.22;4345408;32;20212;-62
2024/01/11 05:06:16;;;;;;;4.15;3.87;;;;;;;-3.21;100.00;96206.56;4358241;32;20346;-62
2024/01/11 05:08:45;;;;;;;6.22;5.68;;;;;;;-3.48;100.00;96215.88;4348491;32;20205;-62
2024/01/11 05:11:24;;;;;;;9.90;7.25;;;;;;;-3.37;100.00;96211.22;4354394;32;20243;-62
2024/01/11 05:13:50;;;;;;;5.07;4.78;;;;;;;-3.48;100.00;96210.69;4343061;32;20185;-62
2024/01/11 05:16:24;;;;;;;4.65;3.90;;;;;;;-3.31;100.00;96207.84;4353874;32;20226;-62
2024/01/11 05:18:52;;;;;;;5.87;5.37;;;;;;;-3.27;100.00;96211.69;4363023;32;20218;-62
2024/01/11 05:21:19;;;;;;;3.72;3.45;;;;;;;-3.06;100.00;96209.09;4314840;32;20207;-62
2024/01/11 05:23:44;;;;;;;5.57;5.07;;;;;;;-3.11;100.00;96206.25;4361772;32;20236;-62
2024/01/11 05:26:10;;;;;;;5.90;5.47;;;;;;;-3.20;100.00;96203.00;4346879;32;20404;-62
2024/01/11 05:28:38;;;;;;;3.90;3.70;;;;;;;-3.23;100.00;96207.75;4319335;32;20197;-63
2024/01/11 05:31:09;;;;;;;4.30;3.87;;;;;;;-3.13;100.00;96200.47;4341323;32;20220;-62
2024/01/11 05:33:37;;;;;;;6.62;6.12;;;;;;;-3.01;100.00;96196.38;4362666;32;20218;-63
2024/01/11 05:36:04;;;;;;;6.32;5.75;;;;;;;-3.18;100.00;96187.25;4352067;32;20207;-62
2024/01/11 05:38:30;;;;;;;6.43;3.75;;;;;;;-3.17;100.00;96200.03;4352360;32;20224;-62
2024/01/11 05:40:56;;;;;;;4.33;4.13;;;;;;;-3.15;100.00;96205.03;4330398;32;20253;-63
2024/01/11 05:43:24;;;;;;;4.57;4.27;;;;;;;-2.99;100.00;96215.16;4359783;32;20197;-62
2024/01/11 05:45:50;;;;;;;4.25;4.00;;;;;;;-2.89;100.00;96220.00;4336986;32;20227;-62
2024/01/11 05:48:18;;;;;;;7.40;3.90;;;;;;;-2.77;100.00;96221.13;4356561;32;20189;-62
2024/01/11 05:50:45;;;;;;;5.05;4.85;;;;;;;-2.81;100.00;96217.31;4356495;32;20211;-62
2024/01/11 05:53:13;;;;;;;4.07;3.75;;;;;;;-3.51;100.00;96236.19;4327285;32;20232;-62
2024/01/11 05:55:40;;;;;;;4.70;4.30;;;;;;;-3.29;100.00;96229.22;4363280;32;20188;-63
2024/01/11 05:58:05;;;;;;;6.80;4.20;;;;;;;-3.14;100.00;96228.22;4369395;32;20193;-62
2024/01/11 06:00:31;;;;;;;3.93;3.73;;;;;;;-3.29;100.00;96230.03;4335024;32;20239;-62
2024/01/11 06:02:57;;;;;;;4.37;3.97;;;;;;;-3.29;100.00;96237.81;4374540;32;20189;-64
2024/01/11 06:05:24;;;;;;;4.90;4.10;;;;;;;-3.04;100.00;96238.25;4344055;32;20259;-63
2024/01/11 06:07:50;;;;;;;4.43;4.12;;;;;;;-3.19;100.00;96246.09;4376216;32;20295;-63
2024/01/11 06:10:15;;;;;;;4.43;4.07;;;;;;;-3.39;100.00;96244.28;4372674;32;20203;-64
2024/01/11 06:12:41;;;;;;;7.67;5.77;;;;;;;-3.23;100.00;96234.50;4335652;32;20193;-62
2024/01/11 06:15:07;;;;;;;4.80;4.50;;;;;;;-3.18;100.00;96232.16;4354574;32;20255;-63
2024/01/11 06:17:32;;;;;;;4.10;3.90;;;;;;;-3.28;100.00;96231.62;4339047;32;20208;-63
2024/01/11 06:19:57;;;;;;;3.20;3.00;;;;;;;-3.44;100.00;96237.06;4345301;32;20294;-63
2024/01/11 06:22:23;;;;;;;4.83;4.40;;;;;;;-3.44;100.00;96246.62;4346910;32;20212;-63
2024/01/11 06:24:48;;;;;;;5.60;4.17;;;;;;;-3.41;100.00;96246.28;4371297;32;20231;-63
2024/01/11 06:27:15;;;;;;;5.03;4.57;;;;;;;-3.73;100.00;96265.63;4349450;32;20243;-62
2024/01/11 06:29:40;;;;;;;4.28;4.00;;;;;;;-3.32;100.00;96260.72;4345387;32;20232;-62
2024/01/11 06:32:06;;;;;;;6.17;5.60;;;;;;;-3.71;100.00;96267.06;4319398;32;20227;-62
2024/01/11 06:34:32;;;;;;;3.78;2.78;;;;;;;-3.29;100.00;96260.34;4334347;32;20189;-62
2024/01/11 06:36:58;;;;;;;4.37;4.07;;;;;;;-3.16;100.00;96261.31;4349627;32;20227;-62
2024/01/11 06:39:25;;;;;;;4.60;4.40;;;;;;;-3.49;100.00;96266.13;4342435;32;20237;-62
2024/01/11 06:41:51;;;;;;;4.60;4.30;;;;;;;-3.54;100.00;96278.84;4357120;32;20212;-62
2024/01/11 06:44:17;;;;;;;5.23;4.87;;;;;;;-3.51;100.00;96278.47;4356967;32;20224;-62
2024/01/11 06:46:45;;;;;;;3.62;3.33;;;;;;;-3.64;100.00;96278.31;4344222;32;20284;-62
2024/01/11 06:49:12;;;;;;;4.80;4.37;;;;;;;-3.54;100.00;96284.03;4368484;32;20246;-62
2024/01/11 06:51:39;;;;;;;4.25;3.28;;;;;;;-3.57;100.00;96292.19;4329535;32;20206;-62
2024/01/11 06:54:07;;;;;;;3.33;3.12;;;;;;;-3.89;100.00;96295.94;4357433;32;20211;-62
2024/01/11 06:56:32;;;;;;;2.58;2.35;;;;;;;-3.95;100.00;96290.69;4362900;32;20208;-62
2024/01/11 06:58:57;;;;;;;2.90;2.70;;;;;;;-4.11;100.00;96302.00;4350821;32;20193;-63
2024/01/11 07:01:25;;;;;;;5.80;4.93;;;;;;;-4.28;100.00;96303.94;4356774;32;20208;-61
2024/01/11 07:03:50;;;;;;;1.45;1.45;;;;;;;-3.85;100.00;96298.97;4355825;32;20216;-63
2024/01/11 07:06:16;;;;;;;2.33;2.17;;;;;;;-3.62;100.00;96302.28;4361768;32;20244;-62
2024/01/11 07:08:42;;;;;;;3.90;3.70;;;;;;;-4.05;100.00;96290.94;4340317;32;22320;-63
2024/01/11 07:11:09;;;;;;;3.00;2.80;;;;;;;-4.33;100.00;96298.47;4315696;32;20215;-63
2024/01/11 07:13:35;;;;;;;3.33;3.12;;;;;;;-4.54;100.00;96299.16;4341234;32;20244;-63
2024/01/11 07:16:03;;;;;;;4.13;3.93;;;;;;;-4.50;100.00;96304.78;4333353;32;20258;-63
2024/01/11 07:18:28;;;;;;;3.87;3.17;;;;;;;-4.23;100.00;96298.25;4364357;32;20304;-62
2024/01/11 07:20:59;;;;;;;5.67;2.80;;;;;;;-4.01;100.00;96297.37;4326070;32;20205;-62
2024/01/11 07:23:26;;;;;;;3.15;2.90;;;;;;;-3.70;100.00;96297.16;4337722;32;20235;-62
2024/01/11 07:25:51;;;;;;;3.40;2.92;;;;;;;-3.54;100.00;96302.19;4360469;32;20201;-63
2024/01/11 07:28:17;;;;;;;5.22;4.62;;;;;;;-3.46;100.00;96302.06;4364485;32;20223;-63
2024/01/11 07:30:43;;;;;;;7.87;5.63;;;;;;;-3.51;100.00;96304.37;4361531;32;20272;-62
2024/01/11 07:33:09;;;;;;;2.33;1.58;;;;;;;-4.22;100.00;96300.66;4372036;32;20274;-58
2024/01/11 07:35:38;;;;;;;9.17;3.70;;;;;;;-0.23;100.00;96277.09;4380034;32;20181;-59
2024/01/11 07:38:05;;;;;;;6.45;5.78;;;;;;;5.35;100.00;96253.50;4364793;32;20200;-60
2024/01/11 07:40:33;;;;;;;7.67;6.97;;;;;;;5.68;100.00;96265.87;4345211;32;20281;-59
2024/01/11 07:42:59;;;;;;;9.10;5.23;;;;;;;6.84;88.69;96258.87;4340299;32;20289;-59
2024/01/11 07:45:24;;;;;;;5.50;5.10;;;;;;;7.71;72.09;96257.06;4372801;32;20343;-59
2024/01/11 07:47:51;;;;;;;5.57;5.10;;;;;;;8.22;54.26;96269.62;4356694;32;20285;-63
2024/01/11 07:50:17;;;;;;;5.03;4.53;;;;;;;6.50;50.32;96278.44;4331869;32;20205;-63
2024/01/11 07:52:45;;;;;;;7.33;6.67;;;;;;;3.87;52.84;96301.44;4329521;32;20363;-63
2024/01/11 07:55:12;;;;;;;6.93;6.23;;;;;;;2.51;56.20;96312.50;4346337;32;20398;-63
2024/01/11 07:57:38;;;;;;;8.33;5.57;;;;;;;0.93;61.76;96329.38;4337433;32;20337;-63
2024/01/11 08:00:08;;;;;;;8.07;6.27;;;;;;;-0.38;68.08;96329.41;4331683;32;20304;-63
2024/01/11 08:02:34;;;;;;;5.53;4.80;;;;;;;-1.74;76.58;96329.56;4308483;32;20205;-62
2024/01/11 08:05:00;;;;;;;10.00;6.03;;;;;;;-2.79;82.87;96340.72;4337923;32;20355;-61
2024/01/11 08:07:28;;;;;;;7.30;6.65;;;;;;;-2.26;81.63;96341.19;4331740;32;20264;-61
2024/01/11 08:09:54;;;;;;;4.97;4.60;;;;;;;-2.26;81.62;96341.19;4350003;32;20264;-62
2024/01/11 08:12:20;;;;;;;5.72;5.20;;;;;;;-1.95;80.33;96337.44;4345796;32;20185;-62
2024/01/11 08:14:46;;;;;;;5.13;4.63;;;;;;;-2.27;81.05;96326.59;4334870;32;20193;-62
2024/01/11 08:17:14;;;;;;;6.12;5.25;;;;;;;-2.65;83.86;96330.47;4340190;32;20220;-61
2024/01/11 08:19:42;;;;;;;5.62;5.22;;;;;;;-2.05;82.60;96326.56;4353397;32;20201;-62
2024/01/11 08:22:09;;;;;;;5.25;4.80;;;;;;;-2.48;85.11;96337.00;4346512;32;20204;-62
2024/01/11 08:24:35;;;;;;;4.47;4.18;;;;;;;-2.57;86.61;96338.12;4311343;32;20210;-63
2024/01/11 08:27:00;;;;;;;6.87;5.70;;;;;;;-2.85;87.21;96335.47;4325614;32;20239;-62
2024/01/11 08:29:27;;;;;;;5.00;4.70;;;;;;;-3.32;92.51;96338.53;4344357;32;20201;-63
2024/01/11 08:31:54;;;;;;;4.93;4.32;;;;;;;-2.73;90.53;96333.19;4355152;32;20260;-62
2024/01/11 08:34:20;;;;;;;6.57;6.05;;;;;;;-1.91;86.71;96328.28;4351842;32;20189;-61
2024/01/11 08:36:48;;;;;;;6.80;5.85;;;;;;;-1.53;84.13;96333.88;4369018;32;20344;-61
2024/01/11 08:39:18;;;;;;;8.40;5.72;;;;;;;-1.31;82.17;96324.19;4364975;32;20310;-62
2024/01/11 08:41:43;;;;;;;6.80;6.20;;;;;;;-2.16;83.97;96341.69;4327366;32;20272;-61
2024/01/11 08:44:11;;;;;;;7.47;6.70;;;;;;;-2.69;86.32;96344.78;4342844;32;20212;-61
2024/01/11 08:46:37;;;;;;;5.37;4.47;;;;;;;-2.31;86.34;96338.38;4327191;32;20192;-62
2024/01/11 08:49:08;;;;;;;6.68;5.87;;;;;;;-2.09;84.98;96342.56;4349217;32;20197;-62
2024/01/11 08:51:34;;;;;;;5.37;4.97;;;;;;;-1.43;82.72;96355.94;4371222;32;20284;-62
2024/01/11 08:54:01;;;;;;;6.53;6.03;;;;;;;-1.27;82.19;96361.84;4345479;32;20304;-62
2024/01/11 08:56:28;;;;;;;8.10;7.15;;;;;;;-1.45;81.77;96368.34;4359509;32;20197;-61
2024/01/11 08:58:55;;;;;;;6.70;6.28;;;;;;;-1.45;81.78;96370.94;4340846;32;20227;-61
2024/01/11 09:01:22;;;;;;;6.68;6.00;;;;;;;-1.58;83.26;96375.28;4369649;32;20206;-61
2024/01/11 09:03:49;;;;;;;5.95;5.45;;;;;;;-1.24;81.95;96371.84;4375120;32;20185;-61
2024/01/11 09:06:14;;;;;;;5.45;5.03;;;;;;;-1.43;83.58;96378.56;4351896;32;20212;-61
2024/01/11 09:08:41;;;;;;;4.70;4.40;;;;;;;-1.19;82.35;96377.28;4372115;32;20244;-62
2024/01/11 09:11:07;;;;;;;5.18;4.68;;;;;;;-1.61;82.02;96389.47;4360024;32;20200;-61
2024/01/11 09:13:34;;;;;;;6.93;6.30;;;;;;;-1.86;83.25;96398.69;4361650;32;20231;-62
2024/01/11 09:16:00;;;;;;;5.43;5.05;;;;;;;-2.10;84.18;96400.72;4343398;32;20221;-61
2024/01/11 09:18:28;;;;;;;7.95;6.60;;;;;;;-1.92;84.12;96395.06;4351803;32;20215;-61
2024/01/11 09:20:56;;;;;;;6.75;6.03;;;;;;;-1.80;83.26;96395.31;4356831;32;20208;-62
2024/01/11 09:23:25;;;;;;;8.20;6.28;;;;;;;-2.32;84.04;96403.50;4347765;32;20205;-61
2024/01/11 09:25:52;;;;;;;6.57;5.62;;;;;;;-2.25;84.99;96380.97;4338297;32;20343;-62
2024/01/11 09:28:17;;;;;;;6.78;6.28;;;;;;;-1.95;83.64;96368.62;4359946;32;20201;-61
2024/01/11 09:30:42;;;;;;;7.23;5.80;;;;;;;-1.81;82.52;96372.91;4360736;32;20315;-62
2024/01/11 09:33:09;;;;;;;6.15;5.60;;;;;;;-1.54;80.47;96390.31;4339371;32;20205;-61
2024/01/11 09:35:34;;;;;;;6.60;6.10;;;;;;;-2.46;83.22;96402.56;4356956;32;20211;-62
2024/01/11 09:38:00;;;;;;;5.47;5.13;;;;;;;-2.58;84.85;96401.44;4360613;32;20209;-60
2024/01/11 09:40:27;;;;;;;5.47;5.07;;;;;;;-2.68;86.85;96398.34;4348503;32;20200;-61
2024/01/11 09:42:53;;;;;;;5.90;5.57;;;;;;;5.69;100.00;96356.97;4356415;32;20289;-60
2024/01/11 09:45:18;;;;;;;12.87;9.30;;;;;;;7.78;100.00;96350.09;4353208;32;20316;-60
2024/01/11 09:47:46;;;;;;;8.73;7.80;;;;;;;9.73;87.29;96352.63;4374839;32;20225;-60
2024/01/11 09:50:17;;;;;;;14.23;10.60;;;;;;;11.60;51.97;96338.28;4380308;32;20201;-61
2024/01/11 09:52:49;;;;;;;7.37;6.67;;;;;;;9.39;41.89;96360.19;4306356;32;20290;-61
2024/01/11 09:55:17;;;;;;;10.77;9.27;;;;;;;5.60;49.21;96376.03;4334151;32;20289;-61
2024/01/11 09:58:06;;;;;;;11.37;9.77;;;;;;;2.59;57.36;96395.22;4319651;32;20450;-60
2024/01/11 10:00:32;;;;;;;10.30;9.10;;;;;;;1.50;61.66;96393.03;4346495;32;20397;-60
2024/01/11 10:02:59;;;;;;;11.50;10.30;;;;;;;1.03;64.87;96382.00;4374395;32;20370;-60
2024/01/11 10:05:26;;;;;;;12.20;10.57;;;;;;;-0.23;69.35;96383.97;4381224;32;20347;-61
2024/01/11 10:07:52;;;;;;;10.70;9.03;;;;;;;-0.47;72.46;96379.31;4370810;32;20326;-61
2024/01/11 10:10:18;;;;;;;12.00;10.80;;;;;;;-1.03;75.32;96384.75;4361651;32;20340;-60
2024/01/11 10:12:47;;;;;;;14.07;10.23;;;;;;;-0.88;76.29;96372.41;4370612;32;20439;-59
2024/01/11 10:15:13;;;;;;;10.10;9.03;;;;;;;-1.44;78.65;96361.34;4344873;32;20336;-61
2024/01/11 10:17:45;;;;;;;8.93;7.40;;;;;;;-0.78;77.28;96357.19;4371363;32;20308;-59
2024/01/11 10:20:23;;;;;;;9.23;7.85;;;;;;;-0.40;75.39;96354.06;4353457;32;20371;-60
2024/01/11 10:22:52;;;;;;;8.75;7.85;;;;;;;-1.48;78.94;96365.34;4314250;32;20288;-60
2024/01/11 10:25:19;;;;;;;7.05;6.35;;;;;;;-1.26;79.72;96359.03;4363289;32;20292;-62
2024/01/11 10:27:45;;;;;;;8.32;7.60;;;;;;;-1.37;80.71;96345.75;4366925;32;20189;-61
2024/01/11 10:30:15;;;;;;;9.50;8.37;;;;;;;-0.77;79.13;96331.97;4356199;32;20331;-60
2024/01/11 10:32:43;;;;;;;8.45;7.00;;;;;;;-0.39;77.91;96334.81;4361686;32;20204;-62
2024/01/11 10:35:09;;;;;;;9.27;8.45;;;;;;;-0.09;76.51;96325.63;4337175;32;20193;-60
2024/01/11 10:37:41;;;;;;;8.55;7.93;;;;;;;-0.55;77.99;96333.41;4374999;32;20197;-61
2024/01/11 10:40:15;;;;;;;6.47;6.05;;;;;;;-0.98;78.87;96345.13;4374886;32;20188;-60
2024/01/11 10:42:46;;;;;;;8.27;7.50;;;;;;;-1.20;81.25;96342.63;4369332;32;20219;-61
2024/01/11 10:45:21;;;;;;;9.85;7.95;;;;;;;-1.49;81.98;96335.91;4359294;32;20248;-60
2024/01/11 10:47:53;;;;;;;9.05;7.70;;;;;;;-1.28;82.79;96331.59;4349909;32;20296;-61
2024/01/11 10:50:22;;;;;;;10.50;9.48;;;;;;;-1.35;82.41;96325.56;4374349;32;20216;-61
2024/01/11 10:53:28;;;;;;;10.60;8.88;;;;;;;-1.86;83.70;96315.47;4338849;32;20221;-60
2024/01/11 10:55:56;;;;;;;9.20;8.30;;;;;;;-1.82;85.67;96327.09;4333943;32;20272;-59
2024/01/11 10:58:35;;;;;;;8.90;8.05;;;;;;;-2.07;86.96;96329.34;4351460;32;20223;-60
2024/01/11 11:01:05;;;;;;;7.43;6.87;;;;;;;-1.46;84.53;96327.72;4357466;32;20219;-61
2024/01/11 11:03:33;;;;;;;9.40;8.50;;;;;;;-1.36;84.25;96342.16;4357200;32;20197;-61
2024/01/11 11:06:00;;;;;;;12.90;10.40;;;;;;;-1.44;83.45;96336.13;4329030;32;20205;-61
2024/01/11 11:08:26;;;;;;;14.90;10.30;;;;;;;-1.42;82.63;96328.94;4360358;32;20220;-60
2024/01/11 11:11:00;;;;;;;10.15;9.23;;;;;;;-1.68;83.85;96326.22;4356397;32;20223;-61
2024/01/11 11:13:31;;;;;;;10.73;9.10;;;;;;;-1.17;82.64;96320.63;4351972;32;20196;-61
2024/01/11 11:15:59;;;;;;;14.05;10.75;;;;;;;-0.62;80.23;96316.19;4360370;32;20184;-62
2024/01/11 11:18:25;;;;;;;15.75;10.25;;;;;;;-0.48;78.57;96305.56;4354338;32;20234;-61
2024/01/11 11:20:54;;;;;;;9.80;8.83;;;;;;;-0.40;77.61;96301.94;4334880;32;20192;-61
2024/01/11 11:23:21;;;;;;;12.30;9.15;;;;;;;-0.14;76.92;96306.34;4369274;32;20280;-61
2024/01/11 11:25:48;;;;;;;13.40;9.98;;;;;;;-0.60;77.27;96303.72;4328106;32;20281;-61
2024/01/11 11:28:19;;;;;;;11.07;9.23;;;;;;;-0.85;79.40;96306.91;4360497;32;20292;-61